Time;durP1;ratioP1;P1;durP2;ratioP2;P2;SDS_P1;SDS_P2;PMS_P1;PMS_P2;Temp;Humidity;BMP_temperature;BMP_pressure;BME280_temperature;BME280_humidity;BME280_pressure;Samples;Min_cycle;Max_cycle;Signal;HPM_P1;HPM_P2
2021/12/23 00:00:11;;;;;;;47.47;22.00;;;-4.70;93.40;;;;;;5028854;28;20219;-82
2021/12/23 00:02:43;;;;;;;43.60;21.48;;;-4.60;94.00;;;;;;5032475;28;20329;-82
2021/12/23 00:05:11;;;;;;;42.33;22.13;;;-4.60;93.80;;;;;;5030815;28;20295;-83
2021/12/23 00:07:39;;;;;;;44.22;21.80;;;-4.50;93.50;;;;;;5033313;28;20204;-82
2021/12/23 00:10:09;;;;;;;47.67;22.40;;;-4.50;93.30;;;;;;5031306;28;20285;-83
2021/12/23 00:12:39;;;;;;;45.22;21.52;;;-4.50;93.10;;;;;;5026244;28;20266;-83
2021/12/23 00:15:16;;;;;;;44.25;22.70;;;-4.60;92.90;;;;;;5029555;28;20226;-82
2021/12/23 00:17:58;;;;;;;51.97;23.55;;;-4.50;92.70;;;;;;5033630;28;20207;-82
2021/12/23 00:23:25;;;;;;;55.60;24.45;;;-4.60;92.30;;;;;;5024077;28;20195;-81
2021/12/23 00:26:00;;;;;;;59.80;27.92;;;-4.60;92.00;;;;;;5025931;28;20264;-82
2021/12/23 00:28:28;;;;;;;61.38;28.08;;;-4.60;91.50;;;;;;5031844;28;20227;-83
2021/12/23 00:30:55;;;;;;;51.60;24.83;;;-4.60;91.50;;;;;;5032007;28;20293;-82
2021/12/23 00:33:23;;;;;;;49.83;23.67;;;-4.70;91.40;;;;;;5027532;28;20243;-80
2021/12/23 00:35:52;;;;;;;52.42;25.50;;;-4.70;91.40;;;;;;5026204;28;20251;-81
2021/12/23 00:38:24;;;;;;;47.22;24.08;;;-4.70;91.20;;;;;;5021080;28;20241;-82
2021/12/23 00:40:52;;;;;;;42.75;22.90;;;-4.70;91.40;;;;;;5029233;28;20255;-81
2021/12/23 00:43:20;;;;;;;85.63;34.08;;;-4.70;91.20;;;;;;5035210;28;20204;-82
2021/12/23 00:45:47;;;;;;;70.88;28.88;;;-4.60;91.40;;;;;;5032498;28;20316;-82
2021/12/23 00:48:14;;;;;;;58.88;25.98;;;-4.60;90.90;;;;;;5030158;28;20346;-82
2021/12/23 00:50:43;;;;;;;58.30;23.70;;;-4.60;90.70;;;;;;5024837;28;20258;-82
2021/12/23 00:53:10;;;;;;;48.60;24.45;;;-4.70;90.40;;;;;;5025416;28;20204;-82
2021/12/23 00:55:38;;;;;;;61.65;26.60;;;-4.60;90.70;;;;;;5029333;28;20232;-84
2021/12/23 00:58:05;;;;;;;44.75;21.80;;;-4.70;90.30;;;;;;5034483;28;20284;-82
2021/12/23 01:00:34;;;;;;;49.67;22.10;;;-4.60;90.60;;;;;;5037544;28;20228;-85
2021/12/23 01:03:03;;;;;;;51.53;23.20;;;-4.60;90.60;;;;;;5037144;28;20203;-85
2021/12/23 01:05:30;;;;;;;79.18;29.65;;;-4.70;90.50;;;;;;5037848;28;20199;-83
2021/12/23 01:07:58;;;;;;;51.55;25.55;;;-4.60;90.40;;;;;;5036256;28;20484;-83
2021/12/23 01:10:26;;;;;;;51.10;23.20;;;-4.60;90.70;;;;;;5036071;28;20218;-82
2021/12/23 01:12:58;;;;;;;48.53;22.60;;;-4.60;90.80;;;;;;5033135;28;20206;-84
2021/12/23 01:15:57;;;;;;;38.92;21.20;;;-4.50;91.00;;;;;;5032478;28;20231;-81
2021/12/23 01:18:24;;;;;;;46.78;22.92;;;-4.50;90.80;;;;;;5030035;28;20298;-82
2021/12/23 01:20:52;;;;;;;49.22;23.92;;;-4.60;90.90;;;;;;5030425;28;20227;-82
2021/12/23 01:23:23;;;;;;;46.60;24.10;;;-4.60;90.80;;;;;;5027839;28;20284;-82
2021/12/23 01:25:51;;;;;;;47.28;26.23;;;-4.60;90.80;;;;;;5028245;28;20204;-84
2021/12/23 01:28:18;;;;;;;47.20;24.50;;;-4.60;91.30;;;;;;5030822;28;20683;-84
2021/12/23 01:30:45;;;;;;;51.55;23.67;;;-4.70;91.00;;;;;;5035783;28;20793;-84
2021/12/23 01:33:12;;;;;;;41.42;23.48;;;-4.70;91.20;;;;;;5036480;28;20226;-83
2021/12/23 01:35:40;;;;;;;47.28;24.98;;;-4.70;91.30;;;;;;5035963;28;20224;-82
2021/12/23 01:38:08;;;;;;;51.67;23.75;;;-4.70;91.40;;;;;;5035457;28;20211;-83
2021/12/23 01:40:36;;;;;;;46.97;24.38;;;-4.60;91.50;;;;;;5035486;28;20212;-84
2021/12/23 01:43:05;;;;;;;47.05;25.45;;;-4.70;91.40;;;;;;5036657;28;20187;-83
2021/12/23 01:45:35;;;;;;;39.58;22.15;;;-4.70;91.50;;;;;;5037570;28;20226;-83
2021/12/23 01:48:03;;;;;;;46.17;23.48;;;-4.70;91.50;;;;;;5037083;28;20192;-84
2021/12/23 01:50:31;;;;;;;45.25;23.15;;;-4.70;91.50;;;;;;5036769;28;20216;-83
2021/12/23 01:52:59;;;;;;;42.42;23.25;;;-4.60;91.60;;;;;;5036872;28;20204;-85
2021/12/23 01:55:26;;;;;;;43.72;22.33;;;-4.60;91.50;;;;;;5036913;28;20228;-84
2021/12/23 01:57:55;;;;;;;48.72;23.30;;;-4.60;91.60;;;;;;5036895;28;20204;-83
2021/12/23 02:00:25;;;;;;;39.83;21.75;;;-4.60;91.50;;;;;;5037054;28;20196;-82
2021/12/23 02:02:54;;;;;;;44.30;23.65;;;-4.50;91.50;;;;;;5036760;28;20266;-84
2021/12/23 02:05:21;;;;;;;46.42;23.75;;;-4.50;91.50;;;;;;5032721;28;20215;-83
2021/12/23 02:07:48;;;;;;;39.47;22.42;;;-4.60;91.50;;;;;;5028548;28;20212;-82
2021/12/23 02:10:16;;;;;;;45.20;20.92;;;-4.60;91.50;;;;;;5028651;28;20254;-82
2021/12/23 02:12:44;;;;;;;38.83;21.05;;;-4.60;91.50;;;;;;5031930;28;20188;-83
2021/12/23 02:15:13;;;;;;;39.83;20.83;;;-4.60;91.40;;;;;;5035359;28;20242;-82
2021/12/23 02:17:40;;;;;;;40.83;21.35;;;-4.60;91.50;;;;;;5029455;28;20208;-80
2021/12/23 02:20:10;;;;;;;39.05;20.90;;;-4.60;91.40;;;;;;5032516;28;20239;-82
2021/12/23 02:22:39;;;;;;;40.60;21.70;;;-4.60;91.50;;;;;;5035014;28;20180;-81
2021/12/23 02:25:08;;;;;;;41.17;22.58;;;-4.70;91.40;;;;;;5032647;28;20234;-82
2021/12/23 02:27:36;;;;;;;40.92;21.90;;;-4.60;91.40;;;;;;5028538;28;20275;-81
2021/12/23 02:30:08;;;;;;;44.90;22.70;;;-4.60;91.40;;;;;;5024721;28;20207;-81
2021/12/23 02:32:36;;;;;;;42.15;19.85;;;-4.60;91.50;;;;;;5025508;28;20220;-81
2021/12/23 02:35:03;;;;;;;43.35;22.45;;;-4.50;91.50;;;;;;5028257;28;20223;-81
2021/12/23 02:37:32;;;;;;;46.13;23.60;;;-4.50;91.50;;;;;;5031659;28;20660;-83
2021/12/23 02:39:59;;;;;;;48.38;21.40;;;-4.50;91.50;;;;;;5032805;28;20212;-80
2021/12/23 02:42:26;;;;;;;43.45;21.35;;;-4.40;91.30;;;;;;5027407;28;20223;-81
2021/12/23 02:44:54;;;;;;;42.80;20.65;;;-4.40;91.40;;;;;;5026810;28;20203;-81
2021/12/23 02:47:21;;;;;;;42.85;21.80;;;-4.40;91.40;;;;;;5024894;28;20243;-80
2021/12/23 02:49:49;;;;;;;41.25;21.25;;;-4.40;91.20;;;;;;5026534;28;20200;-84
2021/12/23 02:52:16;;;;;;;38.40;20.48;;;-4.30;91.10;;;;;;5027632;28;20258;-81
2021/12/23 02:54:54;;;;;;;40.90;19.95;;;-4.40;90.80;;;;;;5027483;28;20227;-81
2021/12/23 02:57:21;;;;;;;39.45;20.58;;;-4.30;90.90;;;;;;5027176;28;20267;-83
2021/12/23 02:59:48;;;;;;;40.15;20.95;;;-4.30;90.90;;;;;;5027650;28;20214;-83
2021/12/23 03:02:15;;;;;;;37.45;21.90;;;-4.30;91.10;;;;;;5028041;28;20255;-81
2021/12/23 03:04:42;;;;;;;40.07;21.27;;;-4.20;91.50;;;;;;4989734;28;1140657;-81
2021/12/23 03:07:09;;;;;;;40.55;20.95;;;-4.10;91.20;;;;;;5028724;28;20200;-83
2021/12/23 03:09:36;;;;;;;39.55;21.80;;;-4.10;90.90;;;;;;5029509;28;20208;-83
2021/12/23 03:12:05;;;;;;;41.22;21.13;;;-4.10;90.60;;;;;;5033168;28;20234;-81
2021/12/23 03:14:32;;;;;;;38.53;19.95;;;-4.00;90.70;;;;;;5027442;28;20263;-84
2021/12/23 03:16:59;;;;;;;36.70;21.27;;;-4.00;90.50;;;;;;5030611;28;20200;-83
2021/12/23 03:19:26;;;;;;;41.38;21.98;;;-4.00;90.20;;;;;;5030979;28;20223;-83
2021/12/23 03:21:53;;;;;;;39.10;20.00;;;-4.00;90.00;;;;;;5031797;28;20290;-81
2021/12/23 03:24:20;;;;;;;37.33;20.63;;;-4.00;90.00;;;;;;5035720;28;20195;-84
2021/12/23 03:26:47;;;;;;;38.80;21.38;;;-3.90;90.00;;;;;;5036376;28;20222;-83
2021/12/23 03:29:16;;;;;;;37.80;20.27;;;-3.80;89.70;;;;;;5036318;28;20203;-87
2021/12/23 03:31:43;;;;;;;35.63;19.77;;;-3.90;88.20;;;;;;5034480;28;20251;-83
2021/12/23 03:34:10;;;;;;;38.47;20.02;;;-3.80;88.20;;;;;;5035870;28;20195;-84
2021/12/23 03:36:37;;;;;;;34.92;17.55;;;-3.80;88.10;;;;;;5036265;28;20258;-86
2021/12/23 03:39:05;;;;;;;40.22;19.58;;;-3.80;88.00;;;;;;5036511;28;20191;-83
2021/12/23 03:41:32;;;;;;;32.38;18.02;;;-3.80;88.80;;;;;;5036241;28;20212;-85
2021/12/23 03:43:59;;;;;;;36.13;18.60;;;-3.70;89.20;;;;;;5036229;28;20192;-83
2021/12/23 03:46:28;;;;;;;31.00;18.48;;;-3.60;88.80;;;;;;5034993;28;20242;-84
2021/12/23 03:48:55;;;;;;;35.95;19.60;;;-3.60;88.10;;;;;;5033114;28;20214;-83
2021/12/23 03:51:22;;;;;;;36.35;20.00;;;-3.70;86.90;;;;;;5035501;28;20246;-82
2021/12/23 03:53:49;;;;;;;37.25;19.73;;;-3.80;86.70;;;;;;5036031;28;20204;-82
2021/12/23 03:56:18;;;;;;;40.58;20.98;;;-3.90;87.00;;;;;;5035254;28;20219;-82
2021/12/23 03:58:45;;;;;;;36.28;19.92;;;-3.90;86.90;;;;;;5032467;28;20235;-81
2021/12/23 04:01:12;;;;;;;34.85;19.73;;;-4.00;87.30;;;;;;5030257;28;20231;-80
2021/12/23 04:03:41;;;;;;;37.67;20.15;;;-4.10;87.50;;;;;;5031366;28;20283;-82
2021/12/23 04:06:08;;;;;;;41.70;21.13;;;-4.10;89.20;;;;;;5030334;28;20233;-83
2021/12/23 04:08:35;;;;;;;38.60;20.63;;;-4.20;88.70;;;;;;5026360;28;20212;-82
2021/12/23 04:11:02;;;;;;;42.85;20.38;;;-4.20;89.80;;;;;;5034491;28;20246;-82
2021/12/23 04:13:29;;;;;;;43.00;19.98;;;-4.20;89.80;;;;;;5037419;28;20218;-82
2021/12/23 04:15:56;;;;;;;38.80;19.25;;;-4.20;90.10;;;;;;5033660;28;20228;-81
2021/12/23 04:18:23;;;;;;;44.25;19.27;;;-4.20;90.30;;;;;;5037516;28;20220;-82
2021/12/23 04:20:55;;;;;;;35.78;17.90;;;-4.20;90.40;;;;;;5036210;28;20236;-83
2021/12/23 04:23:23;;;;;;;38.83;19.98;;;-4.20;90.40;;;;;;5038836;28;20218;-82
2021/12/23 04:25:50;;;;;;;40.13;19.48;;;-4.20;90.50;;;;;;5036172;28;20208;-83
2021/12/23 04:28:20;;;;;;;32.55;18.50;;;-4.20;90.40;;;;;;5035132;28;20242;-82
2021/12/23 04:30:48;;;;;;;36.13;18.15;;;-4.20;90.30;;;;;;5036398;28;20274;-82
2021/12/23 04:33:15;;;;;;;43.13;20.58;;;-4.20;90.50;;;;;;5036182;28;20208;-81
2021/12/23 04:35:42;;;;;;;34.25;18.70;;;-4.20;90.70;;;;;;5036660;28;20287;-82
2021/12/23 04:38:10;;;;;;;34.25;18.20;;;-4.20;90.50;;;;;;5032555;28;20279;-82
2021/12/23 04:40:37;;;;;;;34.55;18.42;;;-4.20;90.30;;;;;;5031493;28;20260;-83
2021/12/23 04:43:06;;;;;;;35.28;18.88;;;-4.20;90.40;;;;;;5031129;28;20233;-82
2021/12/23 04:45:33;;;;;;;39.28;18.73;;;-4.20;90.50;;;;;;5029613;28;20207;-79
2021/12/23 04:48:00;;;;;;;34.65;18.10;;;-4.10;90.50;;;;;;5029427;28;20219;-82
2021/12/23 04:50:27;;;;;;;35.72;18.35;;;-4.00;90.50;;;;;;5030521;28;20267;-81
2021/12/23 04:52:54;;;;;;;33.50;17.48;;;-4.00;90.30;;;;;;5030792;28;20313;-79
2021/12/23 04:55:23;;;;;;;37.35;17.50;;;-4.00;90.20;;;;;;5029959;28;20220;-79
2021/12/23 04:57:50;;;;;;;36.83;18.70;;;-4.00;90.20;;;;;;5031775;28;20242;-81
2021/12/23 05:00:20;;;;;;;33.35;18.48;;;-3.90;90.10;;;;;;5032782;28;20199;-80
2021/12/23 05:02:47;;;;;;;36.40;19.25;;;-3.90;90.00;;;;;;5029848;28;20216;-82
2021/12/23 05:05:15;;;;;;;38.72;19.40;;;-3.90;90.10;;;;;;5028557;28;20223;-81
2021/12/23 05:07:42;;;;;;;34.28;18.20;;;-3.80;90.30;;;;;;5032500;28;20212;-81
2021/12/23 05:10:11;;;;;;;32.38;18.13;;;-3.80;90.40;;;;;;5033448;28;20211;-83
2021/12/23 05:12:43;;;;;;;35.60;17.30;;;-3.70;90.40;;;;;;5033598;28;20204;-82
2021/12/23 05:15:10;;;;;;;39.58;20.58;;;-3.60;90.60;;;;;;5037156;28;20378;-81
2021/12/23 05:17:38;;;;;;;29.35;17.30;;;-3.60;90.70;;;;;;5037367;28;20270;-83
2021/12/23 05:20:09;;;;;;;39.33;19.40;;;-3.50;90.70;;;;;;5037651;28;20191;-82
2021/12/23 05:22:36;;;;;;;33.78;17.50;;;-3.40;90.40;;;;;;5037480;28;20231;-81
2021/12/23 05:25:04;;;;;;;36.30;19.10;;;-3.40;90.20;;;;;;5037378;28;20193;-81
2021/12/23 05:27:31;;;;;;;30.08;17.95;;;-3.40;90.10;;;;;;5034998;28;20219;-81
2021/12/23 05:29:59;;;;;;;29.92;17.08;;;-3.40;90.10;;;;;;5026542;28;20281;-81
2021/12/23 05:32:26;;;;;;;36.78;18.88;;;-3.30;89.30;;;;;;5035950;28;20229;-82
2021/12/23 05:34:53;;;;;;;34.30;16.65;;;-3.30;88.60;;;;;;5027398;28;20233;-81
2021/12/23 05:37:20;;;;;;;37.50;17.90;;;-3.40;87.40;;;;;;5024766;28;20255;-81
2021/12/23 05:39:46;;;;;;;39.40;19.00;;;-3.50;86.40;;;;;;5034988;28;20239;-81
2021/12/23 05:42:13;;;;;;;35.65;18.92;;;-3.60;86.40;;;;;;5035806;28;20216;-79
2021/12/23 05:44:41;;;;;;;36.75;19.67;;;-3.60;86.60;;;;;;5036004;28;20281;-81
2021/12/23 05:47:09;;;;;;;39.63;18.60;;;-3.70;86.50;;;;;;5036632;28;20192;-83
2021/12/23 05:49:36;;;;;;;38.03;19.05;;;-3.70;87.50;;;;;;5036021;28;20237;-80
2021/12/23 05:52:04;;;;;;;50.05;23.35;;;-3.70;88.20;;;;;;5032455;28;20275;-81
2021/12/23 05:54:31;;;;;;;43.55;18.83;;;-3.60;88.50;;;;;;5036907;28;20203;-80
2021/12/23 05:57:01;;;;;;;36.20;18.83;;;-3.60;88.60;;;;;;5036473;28;20245;-81
2021/12/23 05:59:29;;;;;;;44.25;18.83;;;-3.60;89.60;;;;;;5036182;28;20192;-81
2021/12/23 06:01:56;;;;;;;39.47;19.50;;;-3.60;88.40;;;;;;5035562;28;20219;-82
2021/12/23 06:04:25;;;;;;;38.95;19.98;;;-3.70;88.50;;;;;;5034976;28;20220;-82
2021/12/23 06:06:52;;;;;;;38.80;19.90;;;-3.60;89.50;;;;;;5034582;28;20227;-79
2021/12/23 06:09:19;;;;;;;38.25;19.48;;;-3.70;88.60;;;;;;5035883;28;20207;-81
2021/12/23 06:11:46;;;;;;;36.70;18.90;;;-3.80;88.80;;;;;;5036325;28;20212;-82
2021/12/23 06:14:13;;;;;;;35.03;19.17;;;-3.80;89.40;;;;;;5036205;28;20223;-81
2021/12/23 06:16:40;;;;;;;39.28;19.85;;;-3.80;90.00;;;;;;5036314;28;20266;-81
2021/12/23 06:19:07;;;;;;;39.97;19.98;;;-3.80;90.00;;;;;;5036020;28;20199;-81
2021/12/23 06:21:35;;;;;;;35.63;19.48;;;-3.80;90.40;;;;;;5035696;28;20212;-81
2021/12/23 06:24:04;;;;;;;40.22;18.70;;;-3.70;90.50;;;;;;5036418;28;20215;-81
2021/12/23 06:26:31;;;;;;;40.00;20.05;;;-3.60;90.50;;;;;;5036043;28;20222;-81
2021/12/23 06:28:59;;;;;;;39.33;21.35;;;-3.60;90.30;;;;;;5036593;28;20231;-81
2021/12/23 06:31:26;;;;;;;34.75;19.63;;;-3.70;90.00;;;;;;5036216;28;20208;-81
2021/12/23 06:33:53;;;;;;;35.50;17.58;;;-3.70;90.00;;;;;;5036638;28;20188;-81
2021/12/23 06:36:20;;;;;;;38.25;19.50;;;-3.70;90.00;;;;;;5036382;28;20230;-82
2021/12/23 06:38:49;;;;;;;44.30;19.45;;;-3.70;90.00;;;;;;5036672;28;20291;-81
2021/12/23 06:41:17;;;;;;;32.80;17.95;;;-3.70;89.90;;;;;;5036263;28;20238;-81
2021/12/23 06:43:44;;;;;;;39.72;18.77;;;-3.70;89.70;;;;;;5036026;28;20272;-81
2021/12/23 06:46:11;;;;;;;43.42;19.52;;;-3.70;89.70;;;;;;5036149;28;20192;-82
2021/12/23 06:48:38;;;;;;;35.67;18.70;;;-3.70;90.00;;;;;;5036186;28;20192;-83
2021/12/23 06:51:05;;;;;;;37.88;18.10;;;-3.80;90.00;;;;;;5036018;28;20222;-81
2021/12/23 06:53:33;;;;;;;34.05;18.58;;;-3.70;90.10;;;;;;5036067;28;20291;-81
2021/12/23 06:56:02;;;;;;;43.78;20.17;;;-3.70;90.20;;;;;;5036048;28;20209;-81
2021/12/23 06:58:31;;;;;;;37.47;19.35;;;-3.60;90.20;;;;;;5035978;28;20188;-81
2021/12/23 07:00:58;;;;;;;35.65;18.92;;;-3.60;90.20;;;;;;5035205;28;20239;-80
2021/12/23 07:03:32;;;;;;;40.83;20.17;;;-3.60;90.10;;;;;;5031654;28;20233;-81
2021/12/23 07:06:05;;;;;;;34.67;19.35;;;-3.60;90.20;;;;;;5022460;28;20196;-81
2021/12/23 07:08:34;;;;;;;34.40;17.15;;;-3.70;90.00;;;;;;5021787;28;20239;-83
2021/12/23 07:11:04;;;;;;;40.05;17.95;;;-3.70;90.10;;;;;;5023631;28;20329;-80
2021/12/23 07:13:32;;;;;;;37.70;18.80;;;-3.70;90.00;;;;;;5029047;28;20247;-80
2021/12/23 07:16:01;;;;;;;34.65;18.40;;;-3.80;90.10;;;;;;5035073;28;20191;-80
2021/12/23 07:18:27;;;;;;;41.35;20.20;;;-3.80;90.00;;;;;;5034498;28;20204;-81
2021/12/23 07:20:54;;;;;;;34.83;19.20;;;-3.80;90.20;;;;;;5032680;28;20232;-80
2021/12/23 07:23:21;;;;;;;38.05;19.02;;;-3.80;90.50;;;;;;5034060;28;20212;-79
2021/12/23 07:25:48;;;;;;;34.63;18.30;;;-3.70;90.70;;;;;;5032130;28;20242;-80
2021/12/23 07:28:17;;;;;;;34.72;18.45;;;-3.70;90.60;;;;;;5033869;28;20323;-80
2021/12/23 07:30:44;;;;;;;30.73;17.58;;;-3.70;90.90;;;;;;5033332;28;20573;-82
2021/12/23 07:33:11;;;;;;;38.08;19.98;;;-3.60;90.80;;;;;;5033687;28;20216;-80
2021/12/23 07:35:37;;;;;;;40.40;20.50;;;-3.60;90.80;;;;;;5034032;28;20211;-79
2021/12/23 07:38:04;;;;;;;36.30;19.83;;;-3.40;90.90;;;;;;5033497;28;20299;-83
2021/12/23 07:40:32;;;;;;;33.95;17.08;;;-3.40;90.90;;;;;;5028367;28;20296;-81
2021/12/23 07:43:09;;;;;;;32.25;17.67;;;-3.30;91.10;;;;;;5030220;28;20232;-82
2021/12/23 07:45:39;;;;;;;27.83;16.42;;;-3.20;91.00;;;;;;5029879;28;20191;-81
2021/12/23 07:48:06;;;;;;;32.83;17.27;;;-3.10;90.50;;;;;;5030546;28;20205;-81
2021/12/23 07:50:33;;;;;;;34.92;17.30;;;-3.00;90.40;;;;;;5030497;28;20229;-82
2021/12/23 07:53:00;;;;;;;34.60;17.70;;;-3.00;90.20;;;;;;5036316;28;20259;-81
2021/12/23 07:55:27;;;;;;;33.70;17.45;;;-2.90;90.00;;;;;;5037399;28;20204;-81
2021/12/23 07:57:54;;;;;;;33.97;16.88;;;-2.90;89.60;;;;;;5036600;28;20259;-82
2021/12/23 08:00:21;;;;;;;34.30;18.35;;;-2.80;89.10;;;;;;5032318;28;20245;-80
2021/12/23 08:02:49;;;;;;;34.83;18.35;;;-2.80;88.10;;;;;;5031130;28;20216;-80
2021/12/23 08:05:16;;;;;;;38.40;16.65;;;-2.70;88.30;;;;;;5032581;28;20241;-82
2021/12/23 08:07:43;;;;;;;33.45;17.73;;;-2.60;87.80;;;;;;5032622;28;20211;-81
2021/12/23 08:10:10;;;;;;;34.65;16.83;;;-2.60;88.00;;;;;;5037370;28;20297;-82
2021/12/23 08:12:37;;;;;;;32.13;17.88;;;-2.50;87.30;;;;;;5036742;28;20216;-82
2021/12/23 08:15:08;;;;;;;34.95;16.98;;;-2.50;87.30;;;;;;5036087;28;20233;-81
2021/12/23 08:17:35;;;;;;;35.33;18.05;;;-2.40;87.40;;;;;;5034011;28;20273;-82
2021/12/23 08:20:04;;;;;;;34.53;17.75;;;-2.30;87.40;;;;;;5030915;28;20216;-82
2021/12/23 08:22:31;;;;;;;36.53;17.70;;;-2.30;86.60;;;;;;5034172;28;20244;-81
2021/12/23 08:24:59;;;;;;;38.95;16.30;;;-2.20;86.00;;;;;;5036026;28;20201;-82
2021/12/23 08:27:28;;;;;;;34.80;18.00;;;-2.20;85.00;;;;;;5034586;28;20206;-81
2021/12/23 08:29:55;;;;;;;32.42;16.60;;;-2.10;84.60;;;;;;5034276;28;20210;-80
2021/12/23 08:32:23;;;;;;;35.38;18.17;;;-2.00;83.70;;;;;;5037169;28;20241;-83
2021/12/23 08:34:50;;;;;;;31.52;17.55;;;-1.90;84.40;;;;;;5037301;28;20277;-82
2021/12/23 08:37:19;;;;;;;31.75;18.05;;;-1.80;83.50;;;;;;5036966;28;20258;-82
2021/12/23 08:39:48;;;;;;;31.75;17.58;;;-1.70;83.40;;;;;;5035149;28;20202;-82
2021/12/23 08:42:15;;;;;;;32.20;17.50;;;-1.60;82.10;;;;;;5038307;28;20211;-83
2021/12/23 08:44:42;;;;;;;30.63;17.33;;;-1.60;81.00;;;;;;5035753;28;20230;-80
2021/12/23 08:47:10;;;;;;;33.30;18.00;;;-1.60;80.40;;;;;;5031987;28;20205;-82
2021/12/23 08:49:38;;;;;;;31.23;17.50;;;-1.50;80.00;;;;;;5036482;28;20239;-82
2021/12/23 08:52:05;;;;;;;28.27;16.75;;;-1.50;79.20;;;;;;5038347;28;20206;-84
2021/12/23 08:54:34;;;;;;;28.90;16.90;;;-1.40;79.50;;;;;;5038208;28;20214;-84
2021/12/23 08:57:01;;;;;;;26.38;15.38;;;-1.30;79.60;;;;;;5037247;28;20217;-83
2021/12/23 08:59:28;;;;;;;30.33;17.63;;;-1.20;79.50;;;;;;5036283;28;20230;-82
2021/12/23 09:01:55;;;;;;;32.83;17.38;;;-1.10;78.80;;;;;;5035929;28;20291;-83
2021/12/23 09:04:22;;;;;;;32.90;18.73;;;-1.00;78.10;;;;;;5035775;28;20264;-83
2021/12/23 09:06:49;;;;;;;33.10;16.48;;;-1.00;77.20;;;;;;5024727;28;20294;-80
2021/12/23 09:09:17;;;;;;;30.67;15.68;;;-0.90;76.40;;;;;;5027831;28;20234;-82
2021/12/23 09:11:45;;;;;;;31.20;17.08;;;-0.80;75.90;;;;;;5023467;28;20292;-82
2021/12/23 09:14:12;;;;;;;30.27;17.50;;;-0.80;75.60;;;;;;5020762;28;20302;-83
2021/12/23 09:16:40;;;;;;;30.63;17.08;;;-0.70;75.50;;;;;;5022161;28;20274;-82
2021/12/23 09:19:07;;;;;;;30.80;17.00;;;-0.60;74.30;;;;;;5027734;28;20229;-82
2021/12/23 09:21:35;;;;;;;28.73;16.85;;;-0.50;73.20;;;;;;5026651;28;20317;-83
2021/12/23 09:24:03;;;;;;;28.67;15.82;;;-0.50;72.30;;;;;;5030289;28;20213;-83
2021/12/23 09:26:35;;;;;;;27.02;15.50;;;-0.50;72.00;;;;;;5031346;28;20684;-82
2021/12/23 09:29:09;;;;;;;32.20;16.17;;;-0.40;71.60;;;;;;5029124;28;20238;-83
2021/12/23 09:34:24;;;;;;;30.33;16.98;;;-0.40;70.80;;;;;;5027754;28;20249;-84
2021/12/23 09:36:51;;;;;;;32.47;17.58;;;-0.30;70.00;;;;;;5024625;28;20257;-83
2021/12/23 09:39:18;;;;;;;34.95;19.65;;;-0.30;69.80;;;;;;5025633;28;20731;-82
2021/12/23 09:41:47;;;;;;;31.33;17.58;;;-0.30;69.40;;;;;;5027408;28;20231;-83
2021/12/23 09:44:16;;;;;;;34.05;17.85;;;-0.30;70.20;;;;;;5029020;28;20221;-79
2021/12/23 09:46:43;;;;;;;35.55;18.17;;;-0.30;70.70;;;;;;5029000;28;20302;-80
2021/12/23 09:49:10;;;;;;;39.45;19.88;;;-0.20;71.10;;;;;;5025241;28;20242;-81
2021/12/23 09:51:37;;;;;;;31.60;17.70;;;-0.10;70.90;;;;;;5025589;28;20242;-80
2021/12/23 09:54:07;;;;;;;37.70;20.13;;;-0.10;70.20;;;;;;5029897;28;20212;-82
2021/12/23 09:56:36;;;;;;;38.65;19.95;;;0.00;70.00;;;;;;5031122;28;20208;-80
2021/12/23 09:59:05;;;;;;;35.20;19.67;;;0.00;69.80;;;;;;5032645;28;20211;-82
2021/12/23 10:01:34;;;;;;;38.40;20.35;;;0.00;69.10;;;;;;5031476;28;20234;-81
2021/12/23 10:04:01;;;;;;;35.75;19.27;;;0.10;68.90;;;;;;5031558;28;20278;-83
2021/12/23 10:06:28;;;;;;;38.90;20.27;;;0.10;68.80;;;;;;5032616;28;20207;-82
2021/12/23 10:08:56;;;;;;;34.45;19.80;;;0.20;68.90;;;;;;5033349;28;20227;-83
2021/12/23 10:11:30;;;;;;;34.38;18.55;;;0.10;68.90;;;;;;5033991;28;20232;-82
2021/12/23 10:30:39;;;;;;;29.58;18.92;;;0.80;68.50;;;;;;5028507;28;20211;-81
2021/12/23 10:38:55;;;;;;;35.95;18.80;;;1.00;66.00;;;;;;5036444;28;20206;-82
2021/12/23 10:41:24;;;;;;;32.53;19.60;;;0.90;66.30;;;;;;5026741;28;20250;-82
2021/12/23 10:43:55;;;;;;;33.15;19.42;;;0.90;66.50;;;;;;5031408;28;20208;-82
2021/12/23 10:46:26;;;;;;;37.53;19.42;;;0.80;66.60;;;;;;5035993;28;20222;-84
2021/12/23 10:49:07;;;;;;;30.10;20.02;;;0.90;67.60;;;;;;5036329;28;20215;-85
2021/12/23 10:51:56;;;;;;;35.55;19.42;;;0.90;67.50;;;;;;5036843;28;20211;-84
2021/12/23 10:57:59;;;;;;;33.17;18.90;;;0.90;68.00;;;;;;5037163;28;20186;-82
2021/12/23 11:00:18;;;;;;;35.10;19.80;;;1.00;68.30;;;;;;5030585;28;20219;-82
2021/12/23 11:03:06;;;;;;;37.42;20.02;;;0.90;68.40;;;;;;5022736;28;20271;-82
2021/12/23 11:05:39;;;;;;;36.72;20.00;;;1.00;68.90;;;;;;5023768;28;20211;-81
2021/12/23 11:08:19;;;;;;;34.03;20.70;;;1.00;69.60;;;;;;5024800;28;20294;-81
2021/12/23 11:27:36;;;;;;;35.22;19.88;;;1.60;68.30;;;;;;5037771;28;20210;-81
2021/12/23 11:38:38;;;;;;;32.90;19.75;;;1.70;67.50;;;;;;5037831;28;20228;-82
2021/12/23 11:41:17;;;;;;;39.40;19.45;;;1.70;67.30;;;;;;5035380;28;20231;-83
2021/12/23 11:43:57;;;;;;;37.42;21.40;;;1.70;67.50;;;;;;5035976;28;20263;-82
2021/12/23 11:46:29;;;;;;;35.15;20.70;;;1.60;67.40;;;;;;5036102;28;20222;-78
2021/12/23 11:48:58;;;;;;;36.33;19.95;;;1.50;68.30;;;;;;5033254;28;20212;-80
2021/12/23 11:51:32;;;;;;;36.92;20.38;;;1.60;68.80;;;;;;5025748;28;20232;-80
2021/12/23 11:54:03;;;;;;;30.10;19.02;;;1.70;69.00;;;;;;5024701;28;20298;-81
2021/12/23 11:56:31;;;;;;;35.05;19.58;;;1.80;68.30;;;;;;5023428;28;20203;-81
2021/12/23 11:59:01;;;;;;;36.85;21.80;;;1.80;68.70;;;;;;5031009;28;20282;-81
2021/12/23 12:01:32;;;;;;;36.72;19.60;;;1.80;68.40;;;;;;5023303;28;20231;-83
2021/12/23 12:04:01;;;;;;;33.08;20.25;;;2.00;69.10;;;;;;5023827;28;20227;-80
2021/12/23 12:06:38;;;;;;;37.30;21.52;;;2.10;68.60;;;;;;5022771;28;20314;-82
2021/12/23 12:09:15;;;;;;;35.88;21.23;;;2.30;68.00;;;;;;5036338;28;20211;-83
2021/12/23 12:11:47;;;;;;;35.75;19.70;;;2.40;67.90;;;;;;5039416;28;20222;-81
2021/12/23 12:14:40;;;;;;;35.63;21.75;;;2.40;67.30;;;;;;5030255;28;20216;-83
2021/12/23 12:17:50;;;;;;;54.75;25.27;;;2.60;66.90;;;;;;5033269;28;20211;-81
2021/12/23 12:20:35;;;;;;;33.63;21.25;;;2.70;66.70;;;;;;5023257;28;20226;-81
2021/12/23 12:23:06;;;;;;;36.55;20.48;;;2.70;66.50;;;;;;5038465;28;20192;-83
2021/12/23 12:25:59;;;;;;;42.35;24.52;;;2.70;66.70;;;;;;5028526;28;20215;-83
2021/12/23 12:28:35;;;;;;;36.28;20.27;;;2.60;66.60;;;;;;5023471;28;20541;-82
2021/12/23 12:31:05;;;;;;;39.10;20.30;;;2.50;66.60;;;;;;5021670;28;20318;-83
2021/12/23 12:33:59;;;;;;;41.63;22.75;;;2.40;67.40;;;;;;5023850;28;20675;-83
2021/12/23 12:36:27;;;;;;;36.47;21.58;;;2.20;69.90;;;;;;5024474;28;20181;-82
2021/12/23 12:39:17;;;;;;;39.45;22.30;;;2.20;71.30;;;;;;5025254;28;20251;-83
2021/12/23 12:41:46;;;;;;;37.10;22.30;;;2.40;70.80;;;;;;5028056;28;20235;-82
2021/12/23 12:44:19;;;;;;;38.72;22.77;;;2.50;70.90;;;;;;5033337;28;20204;-83
2021/12/23 12:47:12;;;;;;;35.50;21.63;;;2.60;71.00;;;;;;5031197;28;20275;-81
2021/12/23 12:49:41;;;;;;;43.13;24.67;;;2.80;71.10;;;;;;5037141;28;20235;-84
2021/12/23 12:52:14;;;;;;;37.33;20.65;;;2.80;70.30;;;;;;5029697;28;20219;-84
2021/12/23 12:54:43;;;;;;;37.92;21.50;;;3.00;69.60;;;;;;5038211;28;20232;-83
2021/12/23 12:57:12;;;;;;;35.83;20.77;;;3.00;68.50;;;;;;5037757;28;20200;-84
2021/12/23 12:59:44;;;;;;;39.70;20.27;;;3.00;68.50;;;;;;5038099;28;20225;-84
2021/12/23 13:02:31;;;;;;;35.65;21.80;;;3.00;68.80;;;;;;5035340;28;20215;-83
2021/12/23 13:05:07;;;;;;;40.20;21.88;;;3.10;69.00;;;;;;5024093;28;20243;-83
2021/12/23 13:07:36;;;;;;;39.30;21.98;;;3.20;68.60;;;;;;5022626;28;20211;-84
2021/12/23 13:10:10;;;;;;;41.58;21.80;;;3.20;68.50;;;;;;5023533;28;20254;-82
2021/12/23 13:12:47;;;;;;;35.40;21.80;;;3.20;68.40;;;;;;5024013;28;20727;-82
2021/12/23 13:15:21;;;;;;;33.50;20.05;;;3.30;68.80;;;;;;5030054;28;20313;-84
2021/12/23 13:17:55;;;;;;;34.50;21.33;;;3.30;68.50;;;;;;5025790;28;20220;-84
2021/12/23 13:20:36;;;;;;;36.15;21.90;;;3.30;68.90;;;;;;5021893;28;20208;-84
2021/12/23 13:23:06;;;;;;;32.22;21.45;;;3.40;68.70;;;;;;5021847;28;20281;-81
2021/12/23 13:25:34;;;;;;;30.30;20.48;;;3.30;68.80;;;;;;5022867;28;20219;-81
2021/12/23 13:28:06;;;;;;;33.65;20.95;;;3.20;69.40;;;;;;5021698;28;20200;-83
2021/12/23 13:30:36;;;;;;;32.80;20.20;;;3.30;69.50;;;;;;5028187;28;20228;-80
2021/12/23 13:33:05;;;;;;;32.92;20.40;;;3.20;69.80;;;;;;5023439;28;20203;-81
2021/12/23 13:35:33;;;;;;;36.10;19.90;;;3.20;70.60;;;;;;5023112;28;20240;-81